• Join FlightAware (Why Join?)
  • Login
  • US Flag GB Flag 
12:55 EDT


 

Airport Tracker/Info


-or-


 

Live Flight TrackerFlight Track Log ✈ UCA3596 ✈ 14-Jan-2014 ✈ KIAD - KBGM

Flight Track Log - Related Links

Times and Time Zones

All times are in EST time to prevent confusion due to time zone crossing. See the UCA3596 flight status page for this flight to view local times or setup timezone preferences in your user account.

Time Position Orientation Groundspeed Altitude Reporting Facility
EST Latitude Longitude Course Direction KTS MPH feet Rate Location/Type
13:12 39.4267 -77.2517 19° North  Level Estimated
13:13 39.5065 -77.2168 19° North  Level Estimated
13:14 39.5593 -77.1936 19° North  Level Estimated
13:15 39.6121 -77.1704 19° North  Level Estimated
13:16 39.6648 -77.1471 19° North  Level Estimated
13:17 39.7176 -77.1238 19° North  Level Estimated
13:18 39.7704 -77.1005 19° North  Level Estimated
13:19 39.8232 -77.0772 19° North  Level Estimated
13:20 39.8759 -77.0538 19° North  Level Estimated
13:21 39.9287 -77.0304 19° North  Level Estimated
13:22 39.9814 -77.0069 19° North  Level Estimated
13:23 40.0342 -76.9834 19° North  Level Estimated
13:24 40.0869 -76.9599 19° North  Level Estimated
13:25 40.1396 -76.9363 19° North  Level Estimated
13:26 40.1924 -76.9127 19° North  Level Estimated
13:27 40.2451 -76.8891 19° North  Level Estimated
13:28 40.2978 -76.8654 19° North  Level Estimated
13:29 40.3506 -76.8417 19° North  Level Estimated
13:30 40.4033 -76.8179 19° North  Level Estimated
13:31 40.4560 -76.7941 19° North  Level Estimated
13:32 40.5087 -76.7703 19° North  Level Estimated
13:33 40.5614 -76.7464 19° North  Level Estimated
13:34 40.6141 -76.7225 19° North  Level Estimated
13:35 40.6668 -76.6986 19° North  Level Estimated
13:36 40.7194 -76.6746 19° North  Level Estimated
13:37 40.7721 -76.6506 19° North  Level Estimated
13:38 40.8248 -76.6265 19° North  Level Estimated
13:39 40.8774 -76.6024 19° North  Level Estimated
13:40 40.9301 -76.5783 19° North  Level Estimated
13:41 40.9828 -76.5541 19° North  Level Estimated
13:42 41.0354 -76.5299 19° North  Level Estimated
13:43 41.0881 -76.5057 19° North  Level Estimated
13:44 41.1407 -76.4814 19° North  Level Estimated
13:45 41.1934 -76.4570 19° North  Level Estimated
13:46 41.2460 -76.4327 19° North  Level Estimated
13:47 41.2986 -76.4083 19° North  Level Estimated
13:48 41.3512 -76.3838 19° North  Level Estimated
13:49 41.4039 -76.3594 19° North  Level Estimated
13:50 41.4565 -76.3348 19° North  Level Estimated
13:51 41.5091 -76.3103 19° North  Level Estimated
13:52 41.5617 -76.2857 19° North  Level Estimated
13:53 41.6143 -76.2610 19° North  Level Estimated
13:54 41.6669 -76.2363 19° North  Level Estimated
13:55 41.7194 -76.2116 19° North  Level Estimated
13:56 41.7720 -76.1868 19° North  Level Estimated
13:57 41.8246 -76.1620 19° North  Level Estimated
13:58 41.8772 -76.1372 19° North  Level Estimated
13:59 41.9297 -76.1123 19° North  Level Estimated
14:00 41.9823 -76.0874 19° North  Level Estimated
14:01 42.0348 -76.0624 19° North  Level Estimated
14:02 42.0874 -76.0374 19° North  Level Estimated
14:03 42.1399 -76.0123 19° North  Level Estimated
14:04 42.1925 -75.9873 19° North  Level Estimated
14:05 42.2084 -75.9796 20° North  Level Estimated
14:06 42.2084 -75.9796 35° Northeast  Level Estimated
14:07 42.2084 -75.9796 35° Northeast  Level Estimated
14:08 42.2084 -75.9796 35° Northeast  Level Estimated
14:09 42.2084 -75.9796 35° Northeast  Level Estimated
14:10 42.2084 -75.9796 35° Northeast  Level Estimated
14:11 42.2084 -75.9796 35° Northeast  Level Estimated
14:12 42.2084 -75.9796 35° Northeast  Level Estimated
14:13 42.2084 -75.9796 35° Northeast  Level Estimated
14:14 42.2084 -75.9796 35° Northeast  Level Estimated
14:15 42.2084 -75.9796 35° Northeast  Level Estimated
14:16 42.2084 -75.9796 35° Northeast  Level Estimated
14:17 42.2084 -75.9796 35° Northeast  Level Estimated
14:18 42.2084 -75.9796 35° Northeast  Level Estimated
14:19 42.2084 -75.9796 35° Northeast  Level Estimated
14:20 42.2084 -75.9796 35° Northeast  Level Estimated
14:21 42.2084 -75.9796 35° Northeast  Level Estimated
14:22 42.2084 -75.9796 35° Northeast  Level Estimated
14:23 42.2084 -75.9796 35° Northeast  Level Estimated
14:24 42.2084 -75.9796 35° Northeast  Level Estimated